map of BFS home
BFS - Airport
Location
City:  Belfast, County Antrim, Northern Ireland, United Kingdom
Name:Aldergrove International Airport
ICAO:EGAA
IATA:BFS

Details
Type:Airport (Aerodrome, Airfield)
Use:Public/Civil, International (customs port of entry)
Latitude:5439'27"N (54.657500)
Longitude:612'57"W (-6.215832)
Elevation:268 ft (82 m)
Variation:3.15W (WMM2015 magnetic declination)
0.17 annual change
Runways:2
Longest:9121 × 148 ft (2780 × 45 m), paved

Time
Time Zone:UTC+0 (DST+1)
Local Time:

Weather
METAR:EGAA 250120Z 08003KT CAVOK 10/09 Q1026
TAF:EGAA 242254Z 2500/2524 VRB03KT 9999 FEW030= TAF EGPD 242258Z 2500/2524 VRB03KT 9999 FEW040 PROB30
TEMPO 2500/2506 6000

Related Locations
Nearby:
Farthest:SZS: 11841 mi / 19055 km
Ryan's Creek, Stewart Island, STL, NZ

Find:

   beyond  
but within

Other Information
Maps:
NOTAMs:
Links:
Sources:

  
  • flag of United Kingdom
  • flag of Northern Ireland
  • flag of Belfast
  

Airport Diagram

Airport diagram for BFS

Airport diagram PDF

Sectional Chart

Flight Planning
at skyvector.com

Satellite Image

Google Maps Satellite view

 

Copyright © 2004-2018 Karl L. Swartz. All rights reserved.
The Great Circle Mapper name and logo are trademarks of the Great Circle Mapper.
All other trademarks mentioned herein belong to their respective owners.
Please see credits for attibutions and further copyright information.

  Follow gcmap on Facebook Follow gcmap on Twitter Follow gcmap on Google+ GCmap on LinkedIn

hCard Microformat

Geo Microformat